Gallup Mills, Vermont
Current Conditions -  °F | °C
As of 10:52 AM on Tuesday 21 Oct 2014 (Local Time) from KHIE Reporting Station
Overcast Overcast  
Wind Chill: 46°   Ceiling: 5000
Heat Index: 46°   Visibility: 10mi
Dew Point: 41°   Wind: 3mph
Humidity: 83%   Direction: 340°NNW
Pressure: 30.01"   Gusts: NA
Location:  44.5627°N, 71.7775°W
Report Text: KHIE 211452Z AUTO 34003KT 10SM OVC050 08/05 A3001 RMK AO2 SLP170 60001 T00780050 51009
Loading
Personal Weather Stations






























Interactive Weather Map
Tropical Storm Tracking
New forecast layout! Learn more

10-Day Weather Forecast

Advertisements
Track Severe Weather on mobile